Chicago, Illinois
Traffic Map
Current Weather Conditions
Chicago, Illinois
Overcast
Overcast
50°
Feels Like: 50°
Wind Chill: 50° Ceiling: 3600
Heat Index: 50° Visibility: 10mi
Dew Point: 35° Wind: 13mph
Humidity: 57% Direction: 10° (N)
Pressure: 29.78in Gusts: 0mph
Raw Report DataKMDW 041653Z 01011KT 10SM SCT029 OVC036 10/02 A2978 RMK AO2 SLP082 T01000017
Traffic Incident Summary
Active as of:
Severity:
Category:
InformationThere was an issue retrieving the traffic information for this location. Please try a different location or try again shortly.
Advertisements
Track Severe Weather on mobile